NKS204 KDTW-KDFW
Flight info
| Callsign | NKS204 |
|---|---|
| Flight time | 2h 19m |
| Altitude | 36000 |
| Route | SNDRS3 BGHRT STL RZC FSM RRNET SEEVR4 |
| Aircraft | A320/M-SDE3FGHIRWY/LB1 |
Departure
| Time | 2026-05-04 22:36 |
|---|---|
| Airport | Detroit Metropolitan Wayne County Airport (KDTW) |
Arrival
| Time | 2026-05-05 00:55 |
|---|---|
| Airport | Dallas Fort Worth International Airport (KDFW) |
| Time | Latitude | Longitude | Altitude | Speed | Heading |
|---|---|---|---|---|---|
| 2026-05-04 21:53 | 42.22413 | -83.35038 | 646 ft | 0 kts | 129° |
| 2026-05-04 22:24 | 42.22425 | -83.35059 | 646 ft | 4 kts | 129° |
| 2026-05-04 22:24 | 42.22444 | -83.35084 | 646 ft | 4 kts | 151° |
| 2026-05-04 22:24 | 42.22468 | -83.35093 | 648 ft | 4 kts | 194° |
| 2026-05-04 22:25 | 42.22482 | -83.35085 | 646 ft | 1 kts | 213° |
| 2026-05-04 22:27 | 42.22474 | -83.35092 | 647 ft | 6 kts | 213° |
| 2026-05-04 22:27 | 42.22418 | -83.35164 | 647 ft | 12 kts | 232° |
| 2026-05-04 22:27 | 42.22365 | -83.35262 | 648 ft | 13 kts | 232° |
| 2026-05-04 22:27 | 42.22292 | -83.35342 | 648 ft | 14 kts | 216° |
| 2026-05-04 22:28 | 42.22205 | -83.35412 | 646 ft | 15 kts | 209° |
| 2026-05-04 22:28 | 42.22113 | -83.35480 | 647 ft | 15 kts | 208° |
| 2026-05-04 22:28 | 42.22030 | -83.35540 | 647 ft | 9 kts | 207° |
| 2026-05-04 22:28 | 42.21973 | -83.35580 | 647 ft | 10 kts | 207° |
| 2026-05-04 22:29 | 42.21914 | -83.35580 | 646 ft | 10 kts | 152° |
| 2026-05-04 22:29 | 42.21837 | -83.35509 | 646 ft | 15 kts | 132° |
| 2026-05-04 22:29 | 42.21822 | -83.35370 | 645 ft | 16 kts | 89° |
| 2026-05-04 22:29 | 42.21827 | -83.35189 | 646 ft | 21 kts | 88° |
| 2026-05-04 22:30 | 42.21830 | -83.34987 | 646 ft | 22 kts | 89° |
| 2026-05-04 22:30 | 42.21833 | -83.34776 | 646 ft | 20 kts | 88° |
| 2026-05-04 22:30 | 42.21837 | -83.34629 | 647 ft | 8 kts | 87° |
| 2026-05-04 22:30 | 42.21841 | -83.34553 | 647 ft | 9 kts | 83° |
| 2026-05-04 22:31 | 42.21917 | -83.34456 | 646 ft | 20 kts | 27° |
| 2026-05-04 22:31 | 42.22042 | -83.34365 | 646 ft | 21 kts | 29° |
| 2026-05-04 22:31 | 42.22172 | -83.34268 | 645 ft | 22 kts | 29° |
| 2026-05-04 22:31 | 42.22310 | -83.34166 | 647 ft | 23 kts | 28° |
| 2026-05-04 22:32 | 42.22452 | -83.34061 | 646 ft | 24 kts | 29° |
| 2026-05-04 22:32 | 42.22599 | -83.33954 | 646 ft | 25 kts | 28° |
| 2026-05-04 22:32 | 42.22741 | -83.33848 | 647 ft | 18 kts | 30° |
| 2026-05-04 22:32 | 42.22835 | -83.33780 | 645 ft | 12 kts | 29° |
| 2026-05-04 22:33 | 42.22858 | -83.33725 | 645 ft | 1 kts | 95° |
| 2026-05-04 22:33 | 42.22854 | -83.33694 | 644 ft | 8 kts | 104° |
| 2026-05-04 22:33 | 42.22809 | -83.33636 | 645 ft | 9 kts | 180° |
| 2026-05-04 22:34 | 42.22783 | -83.33655 | 647 ft | 0 kts | 227° |
| 2026-05-04 22:34 | 42.22767 | -83.33664 | 645 ft | 4 kts | 206° |
| 2026-05-04 22:34 | 42.22765 | -83.33665 | 646 ft | 0 kts | 206° |
| 2026-05-04 22:35 | 42.22568 | -83.33806 | 647 ft | 66 kts | 208° |
| 2026-05-04 22:36 | 42.22003 | -83.34221 | 648 ft | 119 kts | 208° |
| 2026-05-04 22:36 | 42.21139 | -83.34857 | 756 ft | 151 kts | 206° |
| 2026-05-04 22:36 | 42.20224 | -83.35504 | 1395 ft | 149 kts | 208° |
| 2026-05-04 22:36 | 42.19278 | -83.36129 | 2027 ft | 154 kts | 209° |
| 2026-05-04 22:37 | 42.18198 | -83.36655 | 2312 ft | 178 kts | 201° |
| 2026-05-04 22:37 | 42.16927 | -83.37103 | 2602 ft | 199 kts | 200° |
| 2026-05-04 22:37 | 42.15511 | -83.37634 | 2987 ft | 224 kts | 201° |
| 2026-05-04 22:37 | 42.13948 | -83.38244 | 3467 ft | 244 kts | 201° |
| 2026-05-04 22:38 | 42.12318 | -83.38883 | 4362 ft | 243 kts | 201° |
| 2026-05-04 22:38 | 42.10703 | -83.39507 | 5346 ft | 240 kts | 201° |
| 2026-05-04 22:38 | 42.09103 | -83.40113 | 6313 ft | 237 kts | 201° |
| 2026-05-04 22:38 | 42.07525 | -83.40698 | 7226 ft | 234 kts | 201° |
| 2026-05-04 22:39 | 42.05969 | -83.41263 | 8112 ft | 232 kts | 202° |
| 2026-05-04 22:39 | 42.04494 | -83.42195 | 8425 ft | 246 kts | 221° |
| 2026-05-04 22:39 | 42.03163 | -83.43731 | 8936 ft | 256 kts | 227° |
| 2026-05-04 22:39 | 42.01846 | -83.45427 | 9677 ft | 261 kts | 227° |
| 2026-05-04 22:40 | 42.00519 | -83.47077 | 10334 ft | 266 kts | 226° |
| 2026-05-04 22:40 | 41.99061 | -83.48777 | 10544 ft | 290 kts | 224° |
| 2026-05-04 22:40 | 41.97443 | -83.50570 | 10672 ft | 313 kts | 224° |
| 2026-05-04 22:40 | 41.95695 | -83.52466 | 10794 ft | 333 kts | 223° |
| 2026-05-04 22:41 | 41.93823 | -83.54450 | 10966 ft | 351 kts | 222° |
| 2026-05-04 22:41 | 41.91871 | -83.56479 | 11449 ft | 357 kts | 221° |
| 2026-05-04 22:41 | 41.89889 | -83.58512 | 12024 ft | 360 kts | 221° |
| 2026-05-04 22:41 | 41.87883 | -83.60557 | 12609 ft | 364 kts | 221° |
| 2026-05-04 22:42 | 41.85861 | -83.62619 | 13186 ft | 367 kts | 221° |
| 2026-05-04 22:42 | 41.83826 | -83.64702 | 13723 ft | 370 kts | 221° |
| 2026-05-04 22:42 | 41.81776 | -83.66808 | 14218 ft | 373 kts | 221° |
| 2026-05-04 22:42 | 41.79683 | -83.68960 | 14702 ft | 375 kts | 221° |
| 2026-05-04 22:43 | 41.77631 | -83.71070 | 15193 ft | 379 kts | 221° |
| 2026-05-04 22:43 | 41.75507 | -83.73248 | 15673 ft | 382 kts | 221° |
| 2026-05-04 22:43 | 41.73384 | -83.75422 | 16151 ft | 385 kts | 221° |
| 2026-05-04 22:43 | 41.71242 | -83.77615 | 16618 ft | 389 kts | 221° |
| 2026-05-04 22:44 | 41.69045 | -83.79686 | 17093 ft | 395 kts | 216° |
| 2026-05-04 22:44 | 41.66646 | -83.81615 | 17563 ft | 399 kts | 215° |
| 2026-05-04 22:44 | 41.64254 | -83.83534 | 18021 ft | 402 kts | 215° |
| 2026-05-04 22:44 | 41.61848 | -83.85461 | 18436 ft | 406 kts | 215° |
| 2026-05-04 22:45 | 41.59413 | -83.87411 | 18833 ft | 409 kts | 215° |
| 2026-05-04 22:45 | 41.54491 | -83.91348 | 19644 ft | 415 kts | 215° |
| 2026-05-04 22:45 | 41.52038 | -83.93310 | 20050 ft | 418 kts | 214° |
| 2026-05-04 22:46 | 41.49502 | -83.95339 | 20456 ft | 421 kts | 214° |
| 2026-05-04 22:46 | 41.46983 | -83.97354 | 20835 ft | 423 kts | 214° |
| 2026-05-04 22:46 | 41.44482 | -83.99354 | 21190 ft | 426 kts | 214° |
| 2026-05-04 22:46 | 41.41899 | -84.01417 | 21550 ft | 429 kts | 214° |
| 2026-05-04 22:47 | 41.39334 | -84.03462 | 21881 ft | 431 kts | 214° |
| 2026-05-04 22:47 | 41.36751 | -84.05520 | 22197 ft | 434 kts | 214° |
| 2026-05-04 22:47 | 41.34150 | -84.07590 | 22544 ft | 437 kts | 214° |
| 2026-05-04 22:47 | 41.31531 | -84.09670 | 22870 ft | 440 kts | 214° |
| 2026-05-04 22:48 | 41.28932 | -84.11816 | 23205 ft | 440 kts | 219° |
| 2026-05-04 22:48 | 41.26613 | -84.14439 | 23568 ft | 436 kts | 229° |
| 2026-05-04 22:48 | 41.24692 | -84.17518 | 23959 ft | 432 kts | 238° |
| 2026-05-04 22:48 | 41.23204 | -84.20958 | 24373 ft | 428 kts | 247° |
| 2026-05-04 22:49 | 41.22078 | -84.24611 | 24761 ft | 427 kts | 250° |
| 2026-05-04 22:49 | 41.20985 | -84.28272 | 25187 ft | 425 kts | 250° |
| 2026-05-04 22:49 | 41.19912 | -84.31865 | 25643 ft | 423 kts | 250° |
| 2026-05-04 22:49 | 41.18813 | -84.35540 | 26099 ft | 422 kts | 250° |
| 2026-05-04 22:50 | 41.17731 | -84.39153 | 26555 ft | 420 kts | 250° |
| 2026-05-04 22:50 | 41.16650 | -84.42754 | 26972 ft | 420 kts | 250° |
| 2026-05-04 22:50 | 41.15566 | -84.46353 | 27433 ft | 419 kts | 250° |
| 2026-05-04 22:50 | 41.14485 | -84.49936 | 27909 ft | 418 kts | 250° |
| 2026-05-04 22:51 | 41.13404 | -84.53517 | 28332 ft | 418 kts | 250° |
| 2026-05-04 22:51 | 41.12327 | -84.57080 | 28824 ft | 416 kts | 250° |
| 2026-05-04 22:51 | 41.11263 | -84.60595 | 29286 ft | 416 kts | 250° |
| 2026-05-04 22:51 | 41.10254 | -84.64172 | 29744 ft | 413 kts | 255° |
| 2026-05-04 22:52 | 41.09580 | -84.67871 | 30134 ft | 412 kts | 258° |
| 2026-05-04 22:52 | 41.08960 | -84.71582 | 30484 ft | 412 kts | 258° |
| 2026-05-04 22:52 | 41.08338 | -84.75285 | 30889 ft | 411 kts | 258° |
| 2026-05-04 22:52 | 41.07714 | -84.78974 | 31300 ft | 410 kts | 258° |
| 2026-05-04 22:53 | 41.07090 | -84.82661 | 31691 ft | 409 kts | 258° |
| 2026-05-04 22:53 | 41.06468 | -84.86333 | 32113 ft | 408 kts | 258° |
| 2026-05-04 22:53 | 41.05846 | -84.89990 | 32544 ft | 407 kts | 258° |
| 2026-05-04 22:53 | 41.05224 | -84.93639 | 32951 ft | 406 kts | 258° |
| 2026-05-04 22:54 | 41.04602 | -84.97276 | 33369 ft | 404 kts | 258° |
| 2026-05-04 22:54 | 41.03981 | -85.00905 | 33770 ft | 403 kts | 258° |
| 2026-05-04 22:54 | 41.03363 | -85.04521 | 34104 ft | 402 kts | 258° |
| 2026-05-04 22:54 | 41.02748 | -85.08129 | 34442 ft | 401 kts | 258° |
| 2026-05-04 22:55 | 41.02134 | -85.11719 | 34750 ft | 400 kts | 258° |
| 2026-05-04 22:55 | 41.01519 | -85.15306 | 35052 ft | 399 kts | 258° |
| 2026-05-04 22:55 | 41.00902 | -85.18877 | 35359 ft | 398 kts | 258° |
| 2026-05-04 22:55 | 41.00281 | -85.22440 | 35639 ft | 397 kts | 258° |
| 2026-05-04 22:56 | 40.99030 | -85.29623 | 35721 ft | 406 kts | 258° |
| 2026-05-04 22:56 | 40.97751 | -85.37005 | 35730 ft | 415 kts | 258° |
| 2026-05-04 22:57 | 40.96448 | -85.44465 | 35724 ft | 416 kts | 258° |
| 2026-05-04 22:57 | 40.95140 | -85.51918 | 35730 ft | 416 kts | 258° |
| 2026-05-04 22:58 | 40.93824 | -85.59365 | 35729 ft | 416 kts | 258° |
| 2026-05-04 22:58 | 40.92499 | -85.66810 | 35730 ft | 416 kts | 258° |
| 2026-05-04 22:59 | 40.91179 | -85.74260 | 35732 ft | 416 kts | 258° |
| 2026-05-04 22:59 | 40.89847 | -85.81704 | 35737 ft | 416 kts | 258° |
| 2026-05-04 23:00 | 40.88525 | -85.89155 | 35724 ft | 416 kts | 261° |
| 2026-05-04 23:00 | 40.87705 | -85.96709 | 35723 ft | 415 kts | 263° |
| 2026-05-04 23:01 | 40.86901 | -86.04264 | 35717 ft | 415 kts | 263° |
| 2026-05-04 23:01 | 40.86084 | -86.11819 | 35721 ft | 415 kts | 263° |
| 2026-05-04 23:02 | 40.85260 | -86.19377 | 35702 ft | 415 kts | 262° |
| 2026-05-04 23:02 | 40.84439 | -86.26915 | 35750 ft | 414 kts | 263° |
| 2026-05-04 23:03 | 40.83613 | -86.34433 | 35749 ft | 414 kts | 263° |
| 2026-05-04 23:03 | 40.82981 | -86.40200 | 35740 ft | 413 kts | 263° |
| 2026-05-04 23:04 | 40.82148 | -86.47702 | 35739 ft | 413 kts | 263° |
| 2026-05-04 23:04 | 40.81306 | -86.55202 | 35737 ft | 413 kts | 263° |
| 2026-05-04 23:05 | 40.80467 | -86.62709 | 35728 ft | 414 kts | 262° |
| 2026-05-04 23:05 | 40.79621 | -86.70222 | 35716 ft | 414 kts | 262° |
| 2026-05-04 23:06 | 40.78768 | -86.77735 | 35715 ft | 414 kts | 262° |
| 2026-05-04 23:06 | 40.77910 | -86.85252 | 35717 ft | 414 kts | 262° |
| 2026-05-04 23:07 | 40.77045 | -86.92769 | 35717 ft | 415 kts | 262° |
| 2026-05-04 23:07 | 40.76176 | -87.00288 | 35708 ft | 414 kts | 262° |
| 2026-05-04 23:08 | 40.75314 | -87.07784 | 35717 ft | 413 kts | 262° |
| 2026-05-04 23:08 | 40.74440 | -87.15276 | 35712 ft | 413 kts | 261° |
| 2026-05-04 23:09 | 40.73553 | -87.22746 | 35715 ft | 412 kts | 261° |
| 2026-05-04 23:09 | 40.72672 | -87.30209 | 35707 ft | 412 kts | 261° |
| 2026-05-04 23:10 | 40.71785 | -87.37678 | 35697 ft | 412 kts | 261° |
| 2026-05-04 23:10 | 40.70892 | -87.45149 | 35687 ft | 413 kts | 261° |
| 2026-05-04 23:11 | 40.69993 | -87.52626 | 35693 ft | 413 kts | 261° |
| 2026-05-04 23:11 | 40.69082 | -87.60105 | 35693 ft | 413 kts | 261° |
| 2026-05-04 23:12 | 40.68169 | -87.67582 | 35692 ft | 413 kts | 261° |
| 2026-05-04 23:12 | 40.67256 | -87.75060 | 35687 ft | 413 kts | 261° |
| 2026-05-04 23:13 | 40.66337 | -87.82529 | 35689 ft | 413 kts | 261° |
| 2026-05-04 23:13 | 40.65271 | -87.89963 | 35685 ft | 413 kts | 253° |
| 2026-05-04 23:14 | 40.62672 | -87.96700 | 35684 ft | 417 kts | 234° |
| 2026-05-04 23:14 | 40.58841 | -88.02461 | 35679 ft | 419 kts | 231° |
| 2026-05-04 23:15 | 40.54967 | -88.08191 | 35675 ft | 419 kts | 231° |
| 2026-05-04 23:15 | 40.51092 | -88.13920 | 35694 ft | 419 kts | 231° |
| 2026-05-04 23:16 | 40.47867 | -88.18683 | 35699 ft | 420 kts | 231° |
| 2026-05-04 23:16 | 40.43976 | -88.24403 | 35693 ft | 420 kts | 231° |
| 2026-05-04 23:17 | 40.40079 | -88.30124 | 35682 ft | 421 kts | 231° |
| 2026-05-04 23:17 | 40.36175 | -88.35848 | 35689 ft | 421 kts | 231° |
| 2026-05-04 23:18 | 40.32272 | -88.41568 | 35697 ft | 421 kts | 231° |
| 2026-05-04 23:18 | 40.28359 | -88.47276 | 35700 ft | 421 kts | 231° |
| 2026-05-04 23:19 | 40.24451 | -88.52990 | 35689 ft | 422 kts | 231° |
| 2026-05-04 23:19 | 40.20533 | -88.58702 | 35683 ft | 422 kts | 231° |
| 2026-05-04 23:20 | 40.16596 | -88.64413 | 35697 ft | 423 kts | 231° |
| 2026-05-04 23:20 | 40.12657 | -88.70118 | 35699 ft | 423 kts | 231° |
| 2026-05-04 23:21 | 40.08720 | -88.75828 | 35710 ft | 423 kts | 231° |
| 2026-05-04 23:21 | 40.04775 | -88.81528 | 35706 ft | 423 kts | 231° |
| 2026-05-04 23:22 | 40.00820 | -88.87217 | 35674 ft | 423 kts | 231° |
| 2026-05-04 23:22 | 39.96861 | -88.92913 | 35679 ft | 424 kts | 231° |
| 2026-05-04 23:23 | 39.92894 | -88.98618 | 35685 ft | 425 kts | 231° |
| 2026-05-04 23:23 | 39.88913 | -89.04325 | 35691 ft | 426 kts | 231° |
| 2026-05-04 23:24 | 39.84951 | -89.09996 | 35700 ft | 426 kts | 231° |
| 2026-05-04 23:24 | 39.80934 | -89.15739 | 35708 ft | 426 kts | 231° |
| 2026-05-04 23:25 | 39.76938 | -89.21434 | 35685 ft | 427 kts | 231° |
| 2026-05-04 23:25 | 39.72928 | -89.27144 | 35691 ft | 429 kts | 231° |
| 2026-05-04 23:26 | 39.68930 | -89.32831 | 35695 ft | 430 kts | 231° |
| 2026-05-04 23:26 | 39.64863 | -89.38598 | 35706 ft | 430 kts | 231° |
| 2026-05-04 23:27 | 39.60840 | -89.44290 | 35707 ft | 431 kts | 231° |
| 2026-05-04 23:27 | 39.56762 | -89.50052 | 35692 ft | 431 kts | 232° |
| 2026-05-04 23:28 | 39.52730 | -89.55743 | 35698 ft | 432 kts | 232° |
| 2026-05-04 23:28 | 39.48658 | -89.61471 | 35689 ft | 433 kts | 232° |
| 2026-05-04 23:29 | 39.44562 | -89.67225 | 35685 ft | 435 kts | 232° |
| 2026-05-04 23:29 | 39.40451 | -89.72990 | 35683 ft | 436 kts | 232° |
| 2026-05-04 23:30 | 39.36326 | -89.78762 | 35686 ft | 437 kts | 232° |
| 2026-05-04 23:30 | 39.32196 | -89.84532 | 35676 ft | 438 kts | 232° |
| 2026-05-04 23:31 | 39.28055 | -89.90304 | 35686 ft | 439 kts | 232° |
| 2026-05-04 23:31 | 39.23903 | -89.96082 | 35692 ft | 439 kts | 232° |
| 2026-05-04 23:32 | 39.19744 | -90.01853 | 35706 ft | 439 kts | 232° |
| 2026-05-04 23:32 | 39.15587 | -90.07613 | 35716 ft | 439 kts | 232° |
| 2026-05-04 23:33 | 39.11432 | -90.13373 | 35692 ft | 439 kts | 233° |
| 2026-05-04 23:33 | 39.07273 | -90.19119 | 35700 ft | 439 kts | 233° |
| 2026-05-04 23:34 | 39.03104 | -90.24856 | 35682 ft | 439 kts | 233° |
| 2026-05-04 23:34 | 38.98940 | -90.30591 | 35684 ft | 439 kts | 233° |
| 2026-05-04 23:35 | 38.94772 | -90.36315 | 35687 ft | 439 kts | 233° |
| 2026-05-04 23:35 | 38.90600 | -90.42032 | 35683 ft | 438 kts | 233° |
| 2026-05-04 23:36 | 38.86429 | -90.47734 | 35673 ft | 438 kts | 234° |
| 2026-05-04 23:36 | 38.82352 | -90.53502 | 35687 ft | 435 kts | 236° |
| 2026-05-04 23:37 | 38.78422 | -90.59391 | 35711 ft | 434 kts | 237° |
| 2026-05-04 23:37 | 38.74492 | -90.65268 | 35707 ft | 434 kts | 236° |
| 2026-05-04 23:38 | 38.70519 | -90.71099 | 35701 ft | 435 kts | 236° |
| 2026-05-04 23:38 | 38.66535 | -90.76912 | 35708 ft | 434 kts | 236° |
| 2026-05-04 23:39 | 38.62555 | -90.82713 | 35700 ft | 433 kts | 237° |
| 2026-05-04 23:39 | 38.58589 | -90.88489 | 35718 ft | 431 kts | 237° |
| 2026-05-04 23:40 | 38.54653 | -90.94219 | 35729 ft | 428 kts | 237° |
| 2026-05-04 23:40 | 38.50727 | -90.99913 | 35729 ft | 426 kts | 237° |
| 2026-05-04 23:41 | 38.46810 | -91.05579 | 35725 ft | 425 kts | 237° |
| 2026-05-04 23:41 | 38.42903 | -91.11235 | 35722 ft | 425 kts | 237° |
| 2026-05-04 23:42 | 38.38997 | -91.16883 | 35751 ft | 424 kts | 238° |
| 2026-05-04 23:42 | 38.35093 | -91.22510 | 35765 ft | 423 kts | 238° |
| 2026-05-04 23:43 | 38.31196 | -91.28117 | 35768 ft | 423 kts | 238° |
| 2026-05-04 23:43 | 38.27298 | -91.33712 | 35767 ft | 422 kts | 238° |
| 2026-05-04 23:44 | 38.23404 | -91.39299 | 35759 ft | 422 kts | 238° |
| 2026-05-04 23:44 | 38.19530 | -91.44845 | 35751 ft | 422 kts | 238° |
| 2026-05-04 23:45 | 38.15604 | -91.50451 | 35736 ft | 422 kts | 238° |
| 2026-05-04 23:45 | 38.11732 | -91.55980 | 35719 ft | 422 kts | 239° |
| 2026-05-04 23:46 | 38.07827 | -91.61546 | 35747 ft | 422 kts | 239° |
| 2026-05-04 23:46 | 38.03918 | -91.67098 | 35760 ft | 422 kts | 239° |
| 2026-05-04 23:47 | 38.00008 | -91.72643 | 35753 ft | 422 kts | 239° |
| 2026-05-04 23:47 | 37.96098 | -91.78185 | 35734 ft | 422 kts | 239° |
| 2026-05-04 23:48 | 37.92181 | -91.83713 | 35701 ft | 422 kts | 239° |
| 2026-05-04 23:48 | 37.88271 | -91.89236 | 35731 ft | 421 kts | 239° |
| 2026-05-04 23:49 | 37.84358 | -91.94749 | 35745 ft | 420 kts | 239° |
| 2026-05-04 23:49 | 37.80451 | -92.00241 | 35759 ft | 419 kts | 239° |
| 2026-05-04 23:50 | 37.76557 | -92.05712 | 35763 ft | 418 kts | 239° |
| 2026-05-04 23:50 | 37.72665 | -92.11171 | 35763 ft | 418 kts | 239° |
| 2026-05-04 23:51 | 37.68774 | -92.16624 | 35734 ft | 418 kts | 240° |
| 2026-05-04 23:51 | 37.64881 | -92.22064 | 35740 ft | 417 kts | 239° |
| 2026-05-04 23:52 | 37.60985 | -92.27492 | 35745 ft | 417 kts | 239° |
| 2026-05-04 23:52 | 37.57114 | -92.32875 | 35730 ft | 416 kts | 240° |
| 2026-05-04 23:53 | 37.53233 | -92.38275 | 35765 ft | 415 kts | 240° |
| 2026-05-04 23:53 | 37.49363 | -92.43651 | 35772 ft | 414 kts | 240° |
| 2026-05-04 23:54 | 37.45492 | -92.49011 | 35771 ft | 413 kts | 240° |
| 2026-05-04 23:54 | 37.41625 | -92.54356 | 35742 ft | 413 kts | 240° |
| 2026-05-04 23:55 | 37.37761 | -92.59691 | 35749 ft | 412 kts | 240° |
| 2026-05-04 23:56 | 37.31960 | -92.67677 | 35733 ft | 412 kts | 240° |
| 2026-05-04 23:56 | 37.28107 | -92.72987 | 35761 ft | 410 kts | 240° |
| 2026-05-04 23:57 | 37.24263 | -92.78265 | 35761 ft | 409 kts | 240° |
| 2026-05-04 23:57 | 37.20418 | -92.83520 | 35763 ft | 408 kts | 240° |
| 2026-05-04 23:58 | 37.16591 | -92.88760 | 35754 ft | 407 kts | 241° |
| 2026-05-04 23:58 | 37.12771 | -92.93986 | 35765 ft | 406 kts | 241° |
| 2026-05-04 23:59 | 37.08952 | -92.99190 | 35773 ft | 405 kts | 241° |
| 2026-05-04 23:59 | 37.05139 | -93.04386 | 35774 ft | 405 kts | 241° |
| 2026-05-05 00:00 | 37.01331 | -93.09570 | 35765 ft | 404 kts | 242° |
| 2026-05-05 00:00 | 36.97524 | -93.14728 | 35778 ft | 403 kts | 242° |
| 2026-05-05 00:01 | 36.93733 | -93.19873 | 35756 ft | 402 kts | 242° |
| 2026-05-05 00:01 | 36.89945 | -93.24996 | 35768 ft | 401 kts | 242° |
| 2026-05-05 00:02 | 36.86797 | -93.29251 | 35779 ft | 401 kts | 242° |
| 2026-05-05 00:02 | 36.83004 | -93.34364 | 35787 ft | 401 kts | 242° |
| 2026-05-05 00:03 | 36.79220 | -93.39471 | 35793 ft | 401 kts | 242° |
| 2026-05-05 00:03 | 36.75427 | -93.44566 | 35792 ft | 401 kts | 242° |
| 2026-05-05 00:04 | 36.71631 | -93.49660 | 35792 ft | 401 kts | 242° |
| 2026-05-05 00:04 | 36.67840 | -93.54748 | 35745 ft | 401 kts | 243° |
| 2026-05-05 00:05 | 36.64049 | -93.59829 | 35770 ft | 400 kts | 243° |
| 2026-05-05 00:05 | 36.60262 | -93.64904 | 35774 ft | 400 kts | 243° |
| 2026-05-05 00:06 | 36.56468 | -93.69971 | 35772 ft | 400 kts | 242° |
| 2026-05-05 00:06 | 36.52666 | -93.75028 | 35778 ft | 400 kts | 242° |
| 2026-05-05 00:07 | 36.48861 | -93.80084 | 35799 ft | 400 kts | 243° |
| 2026-05-05 00:07 | 36.45066 | -93.85130 | 35800 ft | 399 kts | 242° |
| 2026-05-05 00:08 | 36.41225 | -93.90129 | 35764 ft | 409 kts | 236° |
| 2026-05-05 00:08 | 36.38761 | -93.92152 | 35772 ft | 437 kts | 224° |
| 2026-05-05 00:08 | 36.36051 | -93.93906 | 35779 ft | 441 kts | 223° |
| 2026-05-05 00:09 | 36.30552 | -93.97327 | 35787 ft | 443 kts | 223° |
| 2026-05-05 00:09 | 36.25028 | -94.00727 | 35803 ft | 443 kts | 223° |
| 2026-05-05 00:10 | 36.19518 | -94.04146 | 35811 ft | 443 kts | 223° |
| 2026-05-05 00:10 | 36.14015 | -94.07578 | 35789 ft | 443 kts | 223° |
| 2026-05-05 00:11 | 36.08509 | -94.11012 | 35802 ft | 444 kts | 223° |
| 2026-05-05 00:11 | 36.02993 | -94.14446 | 35798 ft | 444 kts | 223° |
| 2026-05-05 00:12 | 35.97469 | -94.17871 | 35803 ft | 444 kts | 223° |
| 2026-05-05 00:12 | 35.91944 | -94.21297 | 35790 ft | 444 kts | 222° |
| 2026-05-05 00:13 | 35.86412 | -94.24720 | 35800 ft | 444 kts | 222° |
| 2026-05-05 00:13 | 35.80888 | -94.28132 | 35782 ft | 444 kts | 222° |
| 2026-05-05 00:14 | 35.75362 | -94.31544 | 35791 ft | 444 kts | 222° |
| 2026-05-05 00:14 | 35.69832 | -94.34949 | 35789 ft | 444 kts | 222° |
| 2026-05-05 00:15 | 35.64334 | -94.38328 | 35762 ft | 445 kts | 222° |
| 2026-05-05 00:15 | 35.58793 | -94.41732 | 35775 ft | 445 kts | 222° |
| 2026-05-05 00:16 | 35.53210 | -94.45151 | 35787 ft | 445 kts | 222° |
| 2026-05-05 00:16 | 35.47664 | -94.48548 | 35794 ft | 446 kts | 222° |
| 2026-05-05 00:17 | 35.42150 | -94.51920 | 35794 ft | 446 kts | 222° |
| 2026-05-05 00:17 | 35.36583 | -94.55312 | 35785 ft | 448 kts | 221° |
| 2026-05-05 00:18 | 35.30996 | -94.58712 | 35784 ft | 448 kts | 221° |
| 2026-05-05 00:18 | 35.25413 | -94.62111 | 35798 ft | 448 kts | 221° |
| 2026-05-05 00:19 | 35.19801 | -94.65520 | 35798 ft | 447 kts | 221° |
| 2026-05-05 00:19 | 35.15983 | -94.67837 | 35799 ft | 447 kts | 221° |
| 2026-05-05 00:20 | 35.10409 | -94.71217 | 35774 ft | 448 kts | 221° |
| 2026-05-05 00:20 | 35.04815 | -94.74602 | 35765 ft | 449 kts | 221° |
| 2026-05-05 00:21 | 34.99215 | -94.77976 | 35766 ft | 449 kts | 221° |
| 2026-05-05 00:21 | 34.93608 | -94.81353 | 35780 ft | 450 kts | 221° |
| 2026-05-05 00:22 | 34.88000 | -94.84731 | 35749 ft | 450 kts | 221° |
| 2026-05-05 00:22 | 34.82471 | -94.88216 | 35761 ft | 437 kts | 228° |
| 2026-05-05 00:22 | 34.80078 | -94.90381 | 35764 ft | 422 kts | 235° |
| 2026-05-05 00:23 | 34.77841 | -94.92685 | 35769 ft | 422 kts | 235° |
| 2026-05-05 00:23 | 34.73349 | -94.97292 | 35770 ft | 423 kts | 234° |
| 2026-05-05 00:24 | 34.68840 | -95.01883 | 35787 ft | 423 kts | 234° |
| 2026-05-05 00:24 | 34.64331 | -95.06466 | 35794 ft | 422 kts | 234° |
| 2026-05-05 00:25 | 34.59831 | -95.11048 | 35770 ft | 422 kts | 234° |
| 2026-05-05 00:25 | 34.55330 | -95.15625 | 35788 ft | 422 kts | 234° |
| 2026-05-05 00:26 | 34.50817 | -95.20192 | 35797 ft | 423 kts | 234° |
| 2026-05-05 00:26 | 34.46306 | -95.24756 | 35803 ft | 422 kts | 234° |
| 2026-05-05 00:27 | 34.41825 | -95.29286 | 35807 ft | 423 kts | 234° |
| 2026-05-05 00:27 | 34.37304 | -95.33841 | 35790 ft | 423 kts | 234° |
| 2026-05-05 00:28 | 34.32789 | -95.38377 | 35784 ft | 421 kts | 234° |
| 2026-05-05 00:28 | 34.28288 | -95.42905 | 35803 ft | 421 kts | 234° |
| 2026-05-05 00:29 | 34.23780 | -95.47424 | 35811 ft | 421 kts | 234° |
| 2026-05-05 00:29 | 34.19273 | -95.51927 | 35814 ft | 421 kts | 234° |
| 2026-05-05 00:30 | 34.14749 | -95.56446 | 35090 ft | 427 kts | 234° |
| 2026-05-05 00:30 | 34.12437 | -95.58771 | 34045 ft | 438 kts | 234° |
| 2026-05-05 00:30 | 34.10093 | -95.61112 | 33467 ft | 435 kts | 233° |
| 2026-05-05 00:30 | 34.07761 | -95.63419 | 32802 ft | 433 kts | 233° |
| 2026-05-05 00:31 | 34.05429 | -95.65724 | 32008 ft | 434 kts | 232° |
| 2026-05-05 00:31 | 34.03088 | -95.68042 | 31162 ft | 437 kts | 232° |
| 2026-05-05 00:31 | 34.00736 | -95.70378 | 30286 ft | 440 kts | 232° |
| 2026-05-05 00:31 | 33.98373 | -95.72729 | 29533 ft | 439 kts | 231° |
| 2026-05-05 00:32 | 33.96029 | -95.75046 | 28888 ft | 434 kts | 230° |
| 2026-05-05 00:32 | 33.93719 | -95.77324 | 28475 ft | 425 kts | 230° |
| 2026-05-05 00:32 | 33.91454 | -95.79572 | 27867 ft | 419 kts | 230° |
| 2026-05-05 00:32 | 33.89251 | -95.81778 | 27255 ft | 416 kts | 230° |
| 2026-05-05 00:33 | 33.87014 | -95.84029 | 26637 ft | 412 kts | 230° |
| 2026-05-05 00:33 | 33.84824 | -95.86236 | 26036 ft | 409 kts | 229° |
| 2026-05-05 00:33 | 33.82649 | -95.88420 | 25442 ft | 406 kts | 228° |
| 2026-05-05 00:33 | 33.80478 | -95.90583 | 24836 ft | 404 kts | 228° |
| 2026-05-05 00:34 | 33.78318 | -95.92717 | 24285 ft | 401 kts | 227° |
| 2026-05-05 00:34 | 33.76168 | -95.94827 | 23726 ft | 398 kts | 227° |
| 2026-05-05 00:34 | 33.74060 | -95.96894 | 23173 ft | 395 kts | 226° |
| 2026-05-05 00:34 | 33.71914 | -95.99002 | 22545 ft | 392 kts | 226° |
| 2026-05-05 00:35 | 33.69814 | -96.01067 | 21953 ft | 389 kts | 226° |
| 2026-05-05 00:35 | 33.67727 | -96.03120 | 21384 ft | 386 kts | 226° |
| 2026-05-05 00:35 | 33.65656 | -96.05158 | 20836 ft | 384 kts | 226° |
| 2026-05-05 00:35 | 33.63601 | -96.07186 | 20319 ft | 381 kts | 226° |
| 2026-05-05 00:36 | 33.61558 | -96.09197 | 19775 ft | 379 kts | 226° |
| 2026-05-05 00:36 | 33.59526 | -96.11194 | 19259 ft | 376 kts | 226° |
| 2026-05-05 00:36 | 33.57505 | -96.13174 | 18746 ft | 374 kts | 225° |
| 2026-05-05 00:36 | 33.55496 | -96.15142 | 18236 ft | 372 kts | 225° |
| 2026-05-05 00:37 | 33.53501 | -96.17095 | 17687 ft | 369 kts | 225° |
| 2026-05-05 00:37 | 33.51518 | -96.19037 | 17096 ft | 367 kts | 225° |
| 2026-05-05 00:37 | 33.49550 | -96.20964 | 16521 ft | 364 kts | 225° |
| 2026-05-05 00:37 | 33.47598 | -96.22872 | 16116 ft | 357 kts | 225° |
| 2026-05-05 00:38 | 33.45706 | -96.24712 | 15969 ft | 344 kts | 225° |
| 2026-05-05 00:38 | 33.44017 | -96.26592 | 15679 ft | 330 kts | 234° |
| 2026-05-05 00:38 | 33.42529 | -96.28663 | 15239 ft | 327 kts | 234° |
| 2026-05-05 00:38 | 33.41043 | -96.30725 | 14774 ft | 326 kts | 234° |
| 2026-05-05 00:39 | 33.39563 | -96.32769 | 14351 ft | 324 kts | 233° |
| 2026-05-05 00:39 | 33.38089 | -96.34802 | 13931 ft | 323 kts | 233° |
| 2026-05-05 00:39 | 33.36620 | -96.36823 | 13487 ft | 321 kts | 233° |
| 2026-05-05 00:39 | 33.35167 | -96.38820 | 13213 ft | 314 kts | 233° |
| 2026-05-05 00:40 | 33.33756 | -96.40752 | 13069 ft | 303 kts | 233° |
| 2026-05-05 00:40 | 33.32589 | -96.42777 | 12866 ft | 291 kts | 247° |
| 2026-05-05 00:40 | 33.31876 | -96.45004 | 12522 ft | 285 kts | 255° |
| 2026-05-05 00:40 | 33.31256 | -96.47253 | 12171 ft | 284 kts | 254° |
| 2026-05-05 00:41 | 33.30636 | -96.49480 | 11926 ft | 279 kts | 254° |
| 2026-05-05 00:41 | 33.30028 | -96.51642 | 11763 ft | 271 kts | 254° |
| 2026-05-05 00:41 | 33.29432 | -96.53765 | 11484 ft | 268 kts | 254° |
| 2026-05-05 00:41 | 33.28856 | -96.55875 | 11161 ft | 266 kts | 258° |
| 2026-05-05 00:42 | 33.28637 | -96.58050 | 10842 ft | 263 kts | 268° |
| 2026-05-05 00:42 | 33.28550 | -96.60228 | 10432 ft | 261 kts | 268° |
| 2026-05-05 00:42 | 33.28453 | -96.62387 | 9879 ft | 260 kts | 267° |
| 2026-05-05 00:42 | 33.28352 | -96.64533 | 9315 ft | 259 kts | 267° |
| 2026-05-05 00:43 | 33.28248 | -96.66686 | 8993 ft | 258 kts | 266° |
| 2026-05-05 00:43 | 33.28147 | -96.68821 | 8678 ft | 257 kts | 266° |
| 2026-05-05 00:43 | 33.28044 | -96.70949 | 8365 ft | 256 kts | 266° |
| 2026-05-05 00:43 | 33.27945 | -96.73065 | 8047 ft | 255 kts | 266° |
| 2026-05-05 00:44 | 33.27848 | -96.75166 | 7835 ft | 249 kts | 266° |
| 2026-05-05 00:44 | 33.27753 | -96.77191 | 7490 ft | 241 kts | 266° |
| 2026-05-05 00:44 | 33.27657 | -96.79165 | 7074 ft | 236 kts | 266° |
| 2026-05-05 00:44 | 33.27561 | -96.81114 | 6599 ft | 234 kts | 265° |
| 2026-05-05 00:45 | 33.27469 | -96.83042 | 6151 ft | 231 kts | 265° |
| 2026-05-05 00:45 | 33.27382 | -96.84936 | 5998 ft | 229 kts | 265° |
| 2026-05-05 00:45 | 33.27311 | -96.86850 | 5997 ft | 232 kts | 265° |
| 2026-05-05 00:45 | 33.27244 | -96.88783 | 5997 ft | 234 kts | 265° |
| 2026-05-05 00:46 | 33.27176 | -96.90731 | 5994 ft | 234 kts | 265° |
| 2026-05-05 00:46 | 33.27106 | -96.92681 | 6005 ft | 235 kts | 265° |
| 2026-05-05 00:46 | 33.27036 | -96.94635 | 6000 ft | 237 kts | 265° |
| 2026-05-05 00:46 | 33.26910 | -96.96574 | 5993 ft | 228 kts | 256° |
| 2026-05-05 00:47 | 33.26290 | -96.98227 | 5992 ft | 214 kts | 233° |
| 2026-05-05 00:47 | 33.25176 | -96.99382 | 5998 ft | 215 kts | 211° |
| 2026-05-05 00:47 | 33.24283 | -96.99906 | 6001 ft | 217 kts | 210° |
| 2026-05-05 00:47 | 33.22924 | -97.00683 | 6000 ft | 217 kts | 210° |
| 2026-05-05 00:48 | 33.21562 | -97.01464 | 6001 ft | 218 kts | 209° |
| 2026-05-05 00:48 | 33.20181 | -97.02216 | 5947 ft | 221 kts | 202° |
| 2026-05-05 00:48 | 33.18647 | -97.02465 | 5686 ft | 225 kts | 186° |
| 2026-05-05 00:48 | 33.17085 | -97.02474 | 5402 ft | 224 kts | 185° |
| 2026-05-05 00:49 | 33.15523 | -97.02472 | 5120 ft | 228 kts | 185° |
| 2026-05-05 00:49 | 33.13930 | -97.02478 | 4821 ft | 228 kts | 185° |
| 2026-05-05 00:49 | 33.12355 | -97.02485 | 4532 ft | 222 kts | 185° |
| 2026-05-05 00:49 | 33.10866 | -97.02490 | 4250 ft | 204 kts | 185° |
| 2026-05-05 00:50 | 33.09515 | -97.02496 | 4006 ft | 185 kts | 185° |
| 2026-05-05 00:50 | 33.08287 | -97.02503 | 3779 ft | 168 kts | 184° |
| 2026-05-05 00:50 | 33.07191 | -97.02509 | 3588 ft | 147 kts | 184° |
| 2026-05-05 00:50 | 33.06206 | -97.02515 | 3392 ft | 138 kts | 184° |
| 2026-05-05 00:51 | 33.05260 | -97.02522 | 3214 ft | 135 kts | 184° |
| 2026-05-05 00:51 | 33.04322 | -97.02528 | 3044 ft | 135 kts | 184° |
| 2026-05-05 00:51 | 33.03390 | -97.02533 | 2873 ft | 133 kts | 183° |
| 2026-05-05 00:51 | 33.02462 | -97.02539 | 2701 ft | 133 kts | 182° |
| 2026-05-05 00:52 | 33.01535 | -97.02544 | 2521 ft | 132 kts | 182° |
| 2026-05-05 00:52 | 33.00616 | -97.02549 | 2363 ft | 132 kts | 182° |
| 2026-05-05 00:52 | 32.99696 | -97.02554 | 2194 ft | 133 kts | 181° |
| 2026-05-05 00:52 | 32.98774 | -97.02559 | 2016 ft | 133 kts | 181° |
| 2026-05-05 00:53 | 32.97851 | -97.02564 | 1842 ft | 133 kts | 180° |
| 2026-05-05 00:53 | 32.96936 | -97.02569 | 1681 ft | 131 kts | 182° |
| 2026-05-05 00:53 | 32.96018 | -97.02574 | 1493 ft | 132 kts | 180° |
| 2026-05-05 00:53 | 32.95102 | -97.02579 | 1317 ft | 131 kts | 179° |
| 2026-05-05 00:54 | 32.94191 | -97.02584 | 1144 ft | 131 kts | 179° |
| 2026-05-05 00:54 | 32.93277 | -97.02588 | 970 ft | 130 kts | 176° |
| 2026-05-05 00:54 | 32.92366 | -97.02595 | 751 ft | 132 kts | 176° |
| 2026-05-05 00:54 | 32.91481 | -97.02594 | 622 ft | 129 kts | 180° |
| 2026-05-05 00:55 | 32.90622 | -97.02601 | 577 ft | 106 kts | 180° |
| 2026-05-05 00:55 | 32.90055 | -97.02604 | 571 ft | 57 kts | 180° |
| 2026-05-05 00:55 | 32.89744 | -97.02606 | 572 ft | 36 kts | 183° |
| 2026-05-05 00:55 | 32.89588 | -97.02660 | 571 ft | 22 kts | 207° |
| 2026-05-05 00:56 | 32.89459 | -97.02756 | 570 ft | 20 kts | 212° |
| 2026-05-05 00:56 | 32.89393 | -97.02839 | 572 ft | 12 kts | 263° |
| 2026-05-05 00:56 | 32.89393 | -97.02878 | 573 ft | 0 kts | 270° |
| 2026-05-05 00:57 | 32.89393 | -97.02933 | 575 ft | 20 kts | 270° |
| 2026-05-05 00:57 | 32.89394 | -97.03119 | 576 ft | 24 kts | 270° |
| 2026-05-05 00:57 | 32.89395 | -97.03265 | 582 ft | 12 kts | 270° |
| 2026-05-05 00:57 | 32.89350 | -97.03319 | 584 ft | 11 kts | 184° |
| 2026-05-05 00:58 | 32.89262 | -97.03318 | 583 ft | 15 kts | 180° |
| 2026-05-05 00:58 | 32.89109 | -97.03317 | 583 ft | 25 kts | 180° |
| 2026-05-05 00:58 | 32.88953 | -97.03321 | 583 ft | 11 kts | 196° |
| 2026-05-05 00:58 | 32.88934 | -97.03401 | 584 ft | 12 kts | 269° |
| 2026-05-05 00:59 | 32.88896 | -97.03484 | 584 ft | 13 kts | 207° |
| 2026-05-05 00:59 | 32.88844 | -97.03514 | 584 ft | 4 kts | 236° |
| 2026-05-05 00:59 | 32.88852 | -97.03536 | 584 ft | 1 kts | 311° |
| 2026-05-05 00:59 | 32.88854 | -97.03539 | 584 ft | 0 kts | 311° |
| 2026-05-05 01:00 | 32.88849 | -97.03588 | 584 ft | 0 kts | 321° |